createdAt,value
2019-02-08T00:00:34.237Z,99972.73
2019-02-08T00:03:01.803Z,99971.42
2019-02-08T00:05:29.324Z,99974.90
2019-02-08T00:07:56.884Z,99971.14
2019-02-08T00:10:24.524Z,99974.27
2019-02-08T00:12:52.184Z,99972.84
2019-02-08T00:15:20.176Z,99981.31
2019-02-08T00:17:48.476Z,99977.17
2019-02-08T00:20:16.224Z,99980.09
2019-02-08T00:22:43.805Z,99975.48
2019-02-08T00:25:13.504Z,99989.50
2019-02-08T00:30:18.542Z,99985.00
2019-02-08T00:32:45.944Z,99986.16
2019-02-08T00:35:13.700Z,99985.80
2019-02-08T00:37:41.086Z,99986.98
2019-02-08T00:40:10.405Z,99990.80
2019-02-08T00:42:37.822Z,99986.41
2019-02-08T00:45:05.881Z,99987.45
2019-02-08T00:47:33.771Z,99980.22
2019-02-08T00:50:01.236Z,99981.53
2019-02-08T00:52:28.721Z,99982.98
2019-02-08T00:54:56.095Z,99979.64
2019-02-08T00:57:23.656Z,99991.04
2019-02-08T00:59:51.160Z,99993.44
2019-02-08T01:02:18.658Z,99994.08
2019-02-08T01:04:46.133Z,99995.00
2019-02-08T01:07:13.932Z,99995.60
2019-02-08T01:09:41.411Z,100001.17
2019-02-08T01:12:08.896Z,99998.09
2019-02-08T01:14:36.302Z,100005.31
2019-02-08T01:17:03.926Z,100003.88
2019-02-08T01:19:31.289Z,100008.31
2019-02-08T01:21:58.713Z,100008.79
2019-02-08T01:24:26.160Z,100015.28
2019-02-08T01:26:53.629Z,100016.23
2019-02-08T01:29:21.017Z,100012.67
2019-02-08T01:31:48.473Z,100015.84
2019-02-08T01:34:16.041Z,100020.59
2019-02-08T01:36:48.355Z,100021.41
2019-02-08T01:39:23.286Z,100018.98
2019-02-08T01:41:50.906Z,100014.36
2019-02-08T01:44:18.716Z,100009.59
2019-02-08T01:46:47.571Z,100012.20
2019-02-08T01:49:15.083Z,100006.75
2019-02-08T01:51:45.491Z,100007.05
2019-02-08T01:54:12.921Z,100008.31
2019-02-08T01:56:40.539Z,100012.86
2019-02-08T01:59:08.287Z,100006.55
2019-02-08T02:01:37.067Z,100011.36
2019-02-08T02:04:04.839Z,100011.58
2019-02-08T02:06:32.481Z,100012.05
2019-02-08T02:09:00.119Z,100015.32
2019-02-08T02:11:29.315Z,100016.48
2019-02-08T02:13:57.089Z,100024.96
2019-02-08T02:16:24.853Z,100021.52
2019-02-08T02:18:53.346Z,100009.91
2019-02-08T02:21:22.345Z,100020.43
2019-02-08T02:23:56.011Z,100023.61
2019-02-08T02:26:19.394Z,100022.98
2019-02-08T02:28:48.014Z,100027.11
2019-02-08T02:31:18.037Z,100028.14
2019-02-08T02:33:47.068Z,100023.14
2019-02-08T02:36:14.533Z,100024.53
2019-02-08T02:38:43.673Z,100029.03
2019-02-08T02:41:11.196Z,100027.61
2019-02-08T02:43:38.694Z,100031.23
2019-02-08T02:46:06.094Z,100035.47
2019-02-08T02:48:33.893Z,100036.97
2019-02-08T02:51:01.311Z,100029.20
2019-02-08T02:53:28.886Z,100040.02
2019-02-08T02:55:56.381Z,100037.94
2019-02-08T02:58:23.875Z,100030.81
2019-02-08T03:00:55.649Z,100026.91
2019-02-08T03:03:23.270Z,100027.16
2019-02-08T03:05:50.946Z,100027.08
2019-02-08T03:08:18.525Z,100033.34
2019-02-08T03:10:46.276Z,100033.38
2019-02-08T03:13:13.843Z,100031.81
2019-02-08T03:15:41.416Z,100024.90
2019-02-08T03:18:09.255Z,100023.77
2019-02-08T03:20:36.699Z,100028.98
2019-02-08T03:23:07.265Z,100039.56
2019-02-08T03:25:35.011Z,100029.12
2019-02-08T03:28:02.534Z,100036.30
2019-02-08T03:30:44.892Z,100036.17
2019-02-08T03:33:12.566Z,100036.81
2019-02-08T03:35:42.040Z,100042.87
2019-02-08T03:38:09.838Z,100039.26
2019-02-08T03:40:37.277Z,100039.88
2019-02-08T03:43:05.220Z,100042.48
2019-02-08T03:45:37.241Z,100036.91
2019-02-08T03:48:05.106Z,100036.17
2019-02-08T03:50:32.604Z,100038.43
2019-02-08T03:53:00.249Z,100031.73
2019-02-08T03:55:27.879Z,100035.30
2019-02-08T03:57:55.553Z,100032.63
2019-02-08T04:00:31.230Z,100032.33
2019-02-08T04:02:58.846Z,100029.30
2019-02-08T04:05:26.672Z,100032.78
2019-02-08T04:07:54.340Z,100023.50
2019-02-08T04:10:22.059Z,100025.94
2019-02-08T04:12:49.614Z,100020.84
2019-02-08T04:15:17.664Z,100018.42
2019-02-08T04:17:45.267Z,100025.80
2019-02-08T04:20:14.385Z,100013.67
2019-02-08T04:22:42.090Z,100004.06
2019-02-08T04:25:10.209Z,100021.50
2019-02-08T04:27:37.892Z,100021.89
2019-02-08T04:30:09.315Z,100013.32
2019-02-08T04:32:36.756Z,100017.50
2019-02-08T04:35:04.772Z,100017.72
2019-02-08T04:37:32.532Z,100031.73
2019-02-08T04:40:00.064Z,100030.59
2019-02-08T04:42:27.813Z,100026.84
2019-02-08T04:44:55.354Z,100017.92
2019-02-08T04:47:22.888Z,100020.92
2019-02-08T04:49:50.601Z,100019.62
2019-02-08T04:52:18.076Z,100032.67
2019-02-08T04:54:45.819Z,100030.05
2019-02-08T04:57:13.371Z,100027.84
2019-02-08T04:59:40.960Z,100024.64
2019-02-08T05:02:08.406Z,100024.44
2019-02-08T05:04:36.821Z,100013.83
2019-02-08T05:07:04.470Z,100029.48
2019-02-08T05:09:32.117Z,100029.21
2019-02-08T05:11:59.541Z,100025.71
2019-02-08T05:14:27.081Z,100008.50
2019-02-08T05:16:54.786Z,100020.08
2019-02-08T05:19:22.402Z,100013.09
2019-02-08T05:21:49.963Z,100013.56
2019-02-08T05:24:17.819Z,100009.66
2019-02-08T05:26:45.413Z,100000.67
2019-02-08T05:29:12.910Z,100006.36
2019-02-08T05:31:40.271Z,99999.38
2019-02-08T05:34:07.794Z,99986.33
2019-02-08T05:36:35.270Z,99989.69
2019-02-08T05:39:05.242Z,99979.72
2019-02-08T05:41:32.881Z,99994.69
2019-02-08T05:44:00.660Z,99996.94
2019-02-08T05:46:28.297Z,99996.38
2019-02-08T05:48:55.844Z,99997.30
2019-02-08T05:51:23.391Z,99988.91
2019-02-08T05:53:50.831Z,99990.22
2019-02-08T05:56:18.274Z,99999.91
2019-02-08T05:58:45.926Z,99986.92
2019-02-08T06:01:13.394Z,99994.09
2019-02-08T06:03:43.196Z,99984.31
2019-02-08T06:06:10.904Z,99981.97
2019-02-08T06:08:38.451Z,99981.50
2019-02-08T06:11:06.021Z,99967.06
2019-02-08T06:13:33.490Z,99975.98
2019-02-08T06:16:01.000Z,99964.45
2019-02-08T06:18:28.481Z,99969.55
2019-02-08T06:20:56.020Z,99961.02
2019-02-08T06:23:23.459Z,99963.41
2019-02-08T06:25:51.039Z,99949.16
2019-02-08T06:28:18.481Z,99970.28
2019-02-08T06:30:45.981Z,99961.55
2019-02-08T06:33:13.360Z,99961.28
2019-02-08T06:35:40.998Z,99965.75
2019-02-08T06:38:08.390Z,99967.06
2019-02-08T06:40:41.406Z,99969.49
2019-02-08T06:43:09.174Z,99972.10
2019-02-08T06:45:38.561Z,99970.95
2019-02-08T06:48:07.244Z,99961.42
2019-02-08T06:50:34.755Z,99964.32
2019-02-08T06:53:02.171Z,99963.70
2019-02-08T06:55:29.815Z,99975.73
2019-02-08T06:58:15.332Z,99975.05
2019-02-08T07:00:59.034Z,99977.83
2019-02-08T07:03:46.026Z,99981.30
2019-02-08T07:06:50.945Z,99984.17
2019-02-08T07:09:44.110Z,99970.27
2019-02-08T07:12:27.100Z,99990.69
2019-02-08T07:15:12.976Z,99986.60
2019-02-08T07:17:59.711Z,99986.00
2019-02-08T07:20:48.159Z,99974.92
2019-02-08T07:23:33.715Z,99985.63
2019-02-08T07:26:17.334Z,99988.17
2019-02-08T07:29:01.040Z,99984.88
2019-02-08T07:32:00.330Z,99988.67
2019-02-08T07:34:47.301Z,99984.81
2019-02-08T07:37:43.536Z,99989.43
2019-02-08T07:40:43.758Z,99986.69
2019-02-08T07:43:40.666Z,99985.53
2019-02-08T07:46:13.789Z,99981.78
2019-02-08T07:49:01.050Z,99974.31
2019-02-08T07:51:41.371Z,99982.19
2019-02-08T07:54:40.690Z,99981.45
2019-02-08T07:57:40.174Z,99982.35
2019-02-08T08:00:39.261Z,99984.36
2019-02-08T08:03:36.706Z,99989.09
2019-02-08T08:06:24.470Z,99985.70
2019-02-08T08:09:14.926Z,99979.43
2019-02-08T08:11:57.541Z,99983.03
2019-02-08T08:14:44.746Z,99975.50
2019-02-08T08:17:35.381Z,99979.33
2019-02-08T08:20:16.101Z,99956.34
2019-02-08T08:22:59.509Z,99969.47
2019-02-08T08:26:02.575Z,99978.98
2019-02-08T08:28:48.525Z,99974.12
2019-02-08T08:31:23.816Z,99976.50
2019-02-08T08:34:07.216Z,99973.00
2019-02-08T08:37:24.733Z,99961.84
2019-02-08T08:40:40.932Z,99969.20
2019-02-08T08:50:33.544Z,99959.56
2019-02-08T08:53:38.691Z,99949.86
2019-02-08T08:56:31.795Z,99956.67
2019-02-08T09:00:08.471Z,99959.07
2019-02-08T09:04:03.291Z,99961.78
2019-02-08T09:07:01.243Z,99959.17
2019-02-08T09:10:41.135Z,99961.22
2019-02-08T09:13:32.411Z,99949.19
2019-02-08T09:16:28.886Z,99951.00
2019-02-08T09:19:44.876Z,99927.34
2019-02-08T09:22:56.855Z,99949.61
2019-02-08T09:26:43.573Z,99946.75
2019-02-08T09:33:50.134Z,99941.55
2019-02-08T09:36:48.385Z,99952.26
2019-02-08T09:39:45.926Z,99944.52
2019-02-08T09:44:22.457Z,99942.74
2019-02-08T09:46:28.661Z,99947.98
2019-02-08T09:49:35.739Z,99949.54
2019-02-08T09:52:29.615Z,99944.42
2019-02-08T09:55:39.317Z,99934.80
2019-02-08T09:58:40.625Z,99924.81
2019-02-08T10:02:13.636Z,99926.13
2019-02-08T10:09:34.274Z,99936.98
2019-02-08T10:12:52.630Z,99942.45
2019-02-08T10:15:52.022Z,99937.91
2019-02-08T10:19:50.448Z,99943.97
2019-02-08T10:23:41.860Z,99938.98
2019-02-08T10:27:00.874Z,99934.59
2019-02-08T10:33:39.092Z,99946.13
2019-02-08T10:36:59.755Z,99923.16
2019-02-08T10:39:57.872Z,99935.05
2019-02-08T10:47:38.314Z,99911.98
2019-02-08T10:50:31.346Z,99921.86
2019-02-08T10:53:32.507Z,99904.95
2019-02-08T10:56:36.625Z,99911.52
2019-02-08T10:59:40.386Z,99925.31
2019-02-08T11:03:00.897Z,99911.85
2019-02-08T11:06:04.440Z,99914.47
2019-02-08T11:09:13.906Z,99904.22
2019-02-08T11:12:31.306Z,99898.50
2019-02-08T11:15:52.321Z,99893.38
2019-02-08T11:18:44.543Z,99897.05
2019-02-08T11:21:11.976Z,99889.55
2019-02-08T11:23:39.506Z,99872.41
2019-02-08T11:26:07.421Z,99866.92
2019-02-08T11:28:37.722Z,99873.13
2019-02-08T11:31:05.323Z,99869.86
2019-02-08T11:33:33.031Z,99876.04
2019-02-08T11:36:02.691Z,99865.34
2019-02-08T11:38:30.116Z,99854.74
2019-02-08T11:40:57.601Z,99853.92
2019-02-08T11:43:26.939Z,99857.48
2019-02-08T11:45:54.520Z,99843.27
2019-02-08T11:48:25.373Z,99847.66
2019-02-08T11:51:04.356Z,99825.18
2019-02-08T11:53:31.955Z,99824.58
2019-02-08T11:55:59.470Z,99825.04
2019-02-08T11:58:29.452Z,99824.16
2019-02-08T12:00:59.166Z,99816.89
2019-02-08T12:03:26.827Z,99809.36
2019-02-08T12:05:54.636Z,99820.49
2019-02-08T12:08:22.191Z,99823.91
2019-02-08T12:10:49.721Z,99812.47
2019-02-08T12:13:17.120Z,99821.39
2019-02-08T12:15:44.753Z,99811.05
2019-02-08T12:18:12.245Z,99816.64
2019-02-08T12:20:52.419Z,99807.58
2019-02-08T12:23:23.579Z,99803.83
2019-02-08T12:25:47.049Z,99794.61
2019-02-08T12:28:14.586Z,99797.27
2019-02-08T12:30:42.501Z,99790.83
2019-02-08T12:33:09.911Z,99786.48
2019-02-08T12:35:37.367Z,99773.48
2019-02-08T12:38:04.765Z,99772.66
2019-02-08T12:40:32.212Z,99763.85
2019-02-08T12:42:59.683Z,99759.28
2019-02-08T12:45:27.142Z,99747.70
2019-02-08T12:47:54.527Z,99749.55
2019-02-08T12:50:22.491Z,99761.95
2019-02-08T12:52:49.993Z,99746.61
2019-02-08T12:55:18.711Z,99753.73
2019-02-08T12:57:46.081Z,99730.55
2019-02-08T13:00:16.278Z,99741.56
2019-02-08T13:02:43.681Z,99750.06
2019-02-08T13:05:12.140Z,99751.59
2019-02-08T13:07:40.946Z,99749.61
2019-02-08T13:10:11.726Z,99733.33
2019-02-08T13:12:39.551Z,99742.20
2019-02-08T13:15:08.240Z,99729.70
2019-02-08T13:17:35.645Z,99738.77
2019-02-08T13:20:03.766Z,99726.97
2019-02-08T13:22:36.866Z,99724.34
2019-02-08T13:25:05.626Z,99718.02
2019-02-08T13:27:33.086Z,99720.13
2019-02-08T13:30:00.521Z,99709.83
2019-02-08T13:32:27.966Z,99722.07
2019-02-08T13:34:55.396Z,99719.34
2019-02-08T13:37:22.841Z,99721.25
2019-02-08T13:39:50.244Z,99711.47
2019-02-08T13:42:17.671Z,99704.44
2019-02-08T13:44:45.287Z,99682.76
2019-02-08T13:47:18.074Z,99691.28
2019-02-08T13:49:45.716Z,99689.41
2019-02-08T13:52:13.271Z,99684.84
2019-02-08T13:54:40.786Z,99698.33
2019-02-08T13:57:08.222Z,99691.62
2019-02-08T13:59:35.601Z,99683.64
2019-02-08T14:02:03.261Z,99681.33
2019-02-08T14:04:30.687Z,99674.41
2019-02-08T14:06:58.156Z,99673.04
2019-02-08T14:09:25.641Z,99676.42
2019-02-08T14:11:53.181Z,99684.07
2019-02-08T14:14:20.606Z,99669.88
2019-02-08T14:16:48.042Z,99672.60
2019-02-08T14:19:15.432Z,99674.13
2019-02-08T14:21:43.003Z,99669.00
2019-02-08T14:24:10.412Z,99664.67
2019-02-08T14:26:37.786Z,99653.92
2019-02-08T14:29:05.249Z,99658.95
2019-02-08T14:31:32.767Z,99662.05
2019-02-08T14:34:00.201Z,99642.88
2019-02-08T14:36:27.707Z,99649.61
2019-02-08T14:38:55.172Z,99651.30
2019-02-08T14:41:22.567Z,99636.06
2019-02-08T14:43:49.982Z,99634.00
2019-02-08T14:46:17.366Z,99624.98
2019-02-08T14:48:44.823Z,99615.66
2019-02-08T14:51:12.222Z,99587.46
2019-02-08T14:53:39.661Z,99604.28
2019-02-08T14:56:07.051Z,99606.63
2019-02-08T14:58:34.501Z,99607.94
2019-02-08T15:01:01.886Z,99596.05
2019-02-08T15:03:29.351Z,99597.31
2019-02-08T15:05:56.901Z,99601.39
2019-02-08T15:08:24.476Z,99583.65
2019-02-08T15:10:51.991Z,99587.80
2019-02-08T15:13:19.436Z,99591.95
2019-02-08T15:15:46.866Z,99579.72
2019-02-08T15:18:18.738Z,99578.41
2019-02-08T15:20:53.537Z,99585.30
2019-02-08T15:23:30.954Z,99555.58
2019-02-08T15:26:02.135Z,99577.85
2019-02-08T15:28:33.931Z,99577.63
2019-02-08T15:31:04.558Z,99572.02
2019-02-08T15:33:39.061Z,99567.27
2019-02-08T15:36:10.876Z,99557.88
2019-02-08T15:38:38.806Z,99548.98
2019-02-08T15:41:17.516Z,99555.53
2019-02-08T15:43:48.449Z,99539.59
2019-02-08T15:46:16.334Z,99541.27
2019-02-08T15:48:44.180Z,99537.69
2019-02-08T15:51:21.913Z,99535.89
2019-02-08T15:54:14.201Z,99543.52
2019-02-08T15:57:14.165Z,99534.83
2019-02-08T15:59:43.529Z,99510.89
2019-02-08T16:02:15.646Z,99534.10
2019-02-08T16:05:17.302Z,99530.91
2019-02-08T16:07:45.726Z,99525.18
2019-02-08T16:10:23.371Z,99538.28
2019-02-08T16:13:05.441Z,99530.30
2019-02-08T16:15:39.209Z,99528.98
2019-02-08T16:18:15.201Z,99530.30
2019-02-08T16:21:08.295Z,99516.49
2019-02-08T16:24:02.361Z,99513.96
2019-02-08T16:26:33.700Z,99504.70
2019-02-08T16:29:04.220Z,99516.13
2019-02-08T16:32:12.844Z,99511.00
2019-02-08T16:34:44.375Z,99511.83
2019-02-08T16:37:19.117Z,99507.90
2019-02-08T16:39:50.169Z,99489.61
2019-02-08T16:42:18.100Z,99506.79
2019-02-08T16:45:01.407Z,99503.13
2019-02-08T16:47:30.820Z,99493.69
2019-02-08T16:50:23.534Z,99487.48
2019-02-08T16:53:05.603Z,99467.13
2019-02-08T16:55:38.755Z,99480.23
2019-02-08T16:58:11.684Z,99470.39
2019-02-08T17:05:06.959Z,99434.38
2019-02-08T17:07:33.460Z,99452.99
2019-02-08T17:10:12.735Z,99441.36
2019-02-08T17:13:02.399Z,99448.02
2019-02-08T17:15:36.966Z,99435.41
2019-02-08T17:18:09.886Z,99420.86
2019-02-08T17:20:46.974Z,99444.92
2019-02-08T17:23:51.509Z,99435.53
2019-02-08T17:26:25.184Z,99432.31
2019-02-08T17:29:18.620Z,99431.21
2019-02-08T17:32:09.045Z,99439.19
2019-02-08T17:34:41.397Z,99430.66
2019-02-08T17:37:12.129Z,99424.02
2019-02-08T17:42:42.004Z,99422.71
2019-02-08T17:45:15.871Z,99413.05
2019-02-08T17:48:14.958Z,99407.48
2019-02-08T17:50:48.315Z,99402.45
2019-02-08T17:53:31.765Z,99402.12
2019-02-08T17:56:18.449Z,99378.80
2019-02-08T17:59:14.876Z,99382.27
2019-02-08T18:01:45.695Z,99366.34
2019-02-08T18:04:23.212Z,99379.55
2019-02-08T18:07:03.128Z,99358.27
2019-02-08T18:09:36.041Z,99365.30
2019-02-08T18:12:06.275Z,99363.41
2019-02-08T18:14:36.746Z,99356.26
2019-02-08T18:17:04.873Z,99361.28
2019-02-08T18:20:00.315Z,99354.41
2019-02-08T18:22:31.836Z,99356.38
2019-02-08T18:25:03.170Z,99351.84
2019-02-08T18:27:50.399Z,99349.62
2019-02-08T18:30:36.174Z,99342.62
2019-02-08T18:33:03.070Z,99350.20
2019-02-08T18:35:41.240Z,99352.94
2019-02-08T18:38:29.121Z,99345.57
2019-02-08T18:41:09.369Z,99338.69
2019-02-08T18:44:02.220Z,99331.05
2019-02-08T18:46:38.702Z,99331.98
2019-02-08T18:49:09.771Z,99332.36
2019-02-08T18:51:56.007Z,99334.55
2019-02-08T18:54:24.399Z,99338.96
2019-02-08T18:56:55.771Z,99330.41
2019-02-08T18:59:46.321Z,99324.95
2019-02-08T19:02:22.990Z,99319.47
2019-02-08T19:04:51.362Z,99325.66
2019-02-08T19:07:19.861Z,99315.48
2019-02-08T19:09:50.052Z,99299.97
2019-02-08T19:12:24.416Z,99306.52
2019-02-08T19:14:58.280Z,99300.30
2019-02-08T19:17:29.491Z,99307.06
2019-02-08T19:20:02.276Z,99296.38
2019-02-08T19:23:04.670Z,99297.13
2019-02-08T19:25:46.471Z,99292.99
2019-02-08T19:28:17.366Z,99288.78
2019-02-08T19:31:14.465Z,99284.85
2019-02-08T19:33:56.562Z,99285.06
2019-02-08T19:36:39.690Z,99272.87
2019-02-08T19:39:30.855Z,99272.99
2019-02-08T19:42:09.735Z,99275.16
2019-02-08T19:44:43.331Z,99269.91
2019-02-08T19:47:19.458Z,99266.52
2019-02-08T19:49:49.391Z,99253.42
2019-02-08T19:52:29.538Z,99257.20
2019-02-08T19:55:02.949Z,99252.11
2019-02-08T19:57:38.555Z,99247.08
2019-02-08T20:00:16.491Z,99239.30
2019-02-08T20:03:06.815Z,99241.72
2019-02-08T20:05:35.511Z,99234.14
2019-02-08T20:08:21.048Z,99235.58
2019-02-08T20:11:10.730Z,99234.55
2019-02-08T20:13:54.234Z,99229.10
2019-02-08T20:16:27.582Z,99225.25
2019-02-08T20:19:01.111Z,99208.42
2019-02-08T20:21:36.435Z,99220.05
2019-02-08T20:24:17.211Z,99208.55
2019-02-08T20:26:48.138Z,99202.16
2019-02-08T20:29:17.104Z,99199.80
2019-02-08T20:31:55.829Z,99195.61
2019-02-08T20:34:28.250Z,99188.08
2019-02-08T20:37:05.155Z,99182.14
2019-02-08T20:39:42.219Z,99182.51
2019-02-08T20:42:19.745Z,99175.75
2019-02-08T20:44:45.343Z,99168.61
2019-02-08T20:47:13.970Z,99148.37
2019-02-08T20:49:43.690Z,99157.11
2019-02-08T20:52:14.699Z,99168.56
2019-02-08T20:54:51.389Z,99154.20
2019-02-08T20:57:19.892Z,99156.16
2019-02-08T21:00:01.120Z,99142.45
2019-02-08T21:02:32.326Z,99137.05
2019-02-08T21:05:01.612Z,99152.28
2019-02-08T21:07:30.036Z,99152.53
2019-02-08T21:10:07.410Z,99141.14
2019-02-08T21:12:41.665Z,99132.64
2019-02-08T21:15:30.151Z,99127.76
2019-02-08T21:18:11.501Z,99134.92
2019-02-08T21:20:49.045Z,99113.19
2019-02-08T21:23:23.101Z,99134.11
2019-02-08T21:26:08.301Z,99112.38
2019-02-08T21:28:42.105Z,99117.19
2019-02-08T21:31:10.430Z,99110.64
2019-02-08T21:33:38.830Z,99100.49
2019-02-08T21:36:23.571Z,99108.52
2019-02-08T21:38:58.819Z,99096.72
2019-02-08T21:41:28.311Z,99079.05
2019-02-08T21:44:00.050Z,99083.75
2019-02-08T21:46:38.141Z,99070.66
2019-02-08T21:49:12.242Z,99072.78
2019-02-08T21:51:52.626Z,99061.84
2019-02-08T21:54:23.100Z,99057.85
2019-02-08T21:57:07.409Z,99051.43
2019-02-08T21:59:58.255Z,99030.44
2019-02-08T22:03:05.844Z,99058.67
2019-02-08T22:05:42.436Z,99031.98
2019-02-08T22:08:37.493Z,99025.23
2019-02-08T22:11:20.355Z,99036.37
2019-02-08T22:17:40.161Z,99013.61
2019-02-08T22:20:10.326Z,99006.44
2019-02-08T22:22:37.811Z,99000.52
2019-02-08T22:25:06.872Z,99016.63
2019-02-08T22:27:34.261Z,99014.01
2019-02-08T22:30:01.741Z,99003.03
2019-02-08T22:32:29.134Z,99006.28
2019-02-08T22:34:56.551Z,98983.52
2019-02-08T22:37:24.020Z,98995.67
2019-02-08T22:39:51.373Z,98986.80
2019-02-08T22:42:18.826Z,98979.46
2019-02-08T22:44:46.276Z,98957.00
2019-02-08T22:47:13.706Z,98969.77
2019-02-08T22:49:41.576Z,98966.46
2019-02-08T22:52:09.021Z,98961.25
2019-02-08T22:54:36.386Z,98964.17
2019-02-08T22:57:03.915Z,98966.69
2019-02-08T22:59:32.026Z,98957.72
2019-02-08T23:01:59.768Z,98950.78
2019-02-08T23:04:32.046Z,98944.59
2019-02-08T23:06:59.686Z,98951.27
2019-02-08T23:09:27.473Z,98955.88
2019-02-08T23:12:00.667Z,98960.83
2019-02-08T23:14:28.101Z,98956.41
2019-02-08T23:16:56.310Z,98964.56
2019-02-08T23:19:23.960Z,98948.28
2019-02-08T23:21:58.235Z,98951.25
2019-02-08T23:24:25.595Z,98942.35
2019-02-08T23:26:53.031Z,98946.97
2019-02-08T23:29:20.571Z,98944.29
2019-02-08T23:31:47.993Z,98928.30
2019-02-08T23:34:15.370Z,98947.95
2019-02-08T23:36:51.160Z,98927.95
2019-02-08T23:39:41.076Z,98923.88
2019-02-08T23:42:07.166Z,98928.49
2019-02-08T23:44:36.829Z,98928.98
2019-02-08T23:47:33.335Z,98932.09
2019-02-08T23:50:07.329Z,98913.59
2019-02-08T23:52:45.222Z,98929.31
2019-02-08T23:55:13.442Z,98931.61
2019-02-08T23:57:47.464Z,98919.19
